Time;durP1;ratioP1;P1;durP2;ratioP2;P2;SDS_P1;SDS_P2;PMS_P1;PMS_P2;Temp;Humidity;BMP_temperature;BMP_pressure;BME280_temperature;BME280_humidity;BME280_pressure;Samples;Min_cycle;Max_cycle;Signal;HPM_P1;HPM_P2
2022/11/05 00:09:29;;;;;;;9.13;7.50;;;;;;;3.99;100.00;96010.09;5015785;28;101711;-67
2022/11/05 00:17:34;;;;;;;8.77;7.83;;;;;;;3.98;100.00;96013.75;5012155;28;102829;-67
2022/11/05 00:20:01;;;;;;;9.20;8.30;;;;;;;3.95;100.00;96020.25;5011579;28;102565;-67
2022/11/05 00:25:17;;;;;;;9.07;8.17;;;;;;;3.79;100.00;96015.56;5011245;28;101797;-67
2022/11/05 00:27:51;;;;;;;10.07;8.67;;;;;;;3.73;100.00;96010.34;5011168;28;102578;-67
2022/11/05 00:30:20;;;;;;;8.37;7.57;;;;;;;3.56;100.00;96012.72;5011867;28;101685;-67
2022/11/05 00:32:49;;;;;;;10.10;8.30;;;;;;;3.65;100.00;96015.91;5014641;28;102486;-67
2022/11/05 00:35:18;;;;;;;8.47;7.57;;;;;;;3.73;100.00;96019.06;5011726;28;101761;-67
2022/11/05 00:37:45;;;;;;;9.50;8.50;;;;;;;3.64;100.00;96016.88;5011520;28;102283;-67
2022/11/05 00:40:14;;;;;;;10.00;8.67;;;;;;;3.62;100.00;96026.81;5011349;28;102646;-67
2022/11/05 00:45:30;;;;;;;9.73;8.50;;;;;;;3.51;100.00;96028.34;5011820;28;102923;-67
2022/11/05 00:50:42;;;;;;;11.10;8.83;;;;;;;3.30;100.00;96027.91;5011410;28;101943;-67
2022/11/05 00:53:09;;;;;;;10.63;9.23;;;;;;;3.16;100.00;96036.91;5011848;28;102901;-67
2022/11/05 00:55:39;;;;;;;10.03;8.17;;;;;;;3.25;100.00;96046.94;5014404;28;102633;-67
2022/11/05 00:58:07;;;;;;;10.37;8.90;;;;;;;3.32;100.00;96057.38;5011512;28;102291;-67
2022/11/05 01:00:37;;;;;;;11.40;9.93;;;;;;;3.30;100.00;96056.81;5010626;28;103205;-67
2022/11/05 01:03:06;;;;;;;11.70;9.47;;;;;;;3.39;100.00;96043.19;5011691;28;101650;-67
2022/11/05 01:05:34;;;;;;;11.63;9.80;;;;;;;3.48;100.00;96047.16;5011643;28;102528;-67
2022/11/05 01:08:01;;;;;;;10.87;9.33;;;;;;;3.44;100.00;96042.56;5009422;28;102630;-67
2022/11/05 01:10:29;;;;;;;12.80;10.00;;;;;;;3.25;100.00;96046.13;5011401;28;102316;-67
2022/11/05 01:12:57;;;;;;;10.17;8.87;;;;;;;3.37;100.00;96041.78;5010232;28;102919;-67
2022/11/05 01:15:24;;;;;;;11.23;9.00;;;;;;;3.44;100.00;96050.44;5010542;28;102694;-67
2022/11/05 01:17:53;;;;;;;12.43;9.67;;;;;;;3.55;100.00;96053.16;5014754;28;101675;-67
2022/11/05 01:20:20;;;;;;;11.40;9.60;;;;;;;3.66;100.00;96060.34;5010569;28;103140;-67
2022/11/05 01:22:47;;;;;;;9.77;8.67;;;;;;;3.72;100.00;96063.97;5009838;28;101968;-67
2022/11/05 01:25:14;;;;;;;11.77;10.50;;;;;;;3.78;100.00;96063.09;5011268;28;102829;-67
2022/11/05 01:27:42;;;;;;;11.47;10.00;;;;;;;3.79;100.00;96068.16;5008415;28;105134;-67
2022/11/05 01:30:10;;;;;;;10.33;9.23;;;;;;;3.86;100.00;96066.25;4991991;28;102168;-67
2022/11/05 01:32:37;;;;;;;12.03;9.43;;;;;;;3.80;100.00;96058.41;5009531;28;105407;-67
2022/11/05 01:35:08;;;;;;;12.97;9.60;;;;;;;3.89;100.00;96051.88;5009077;28;104929;-67
2022/11/05 01:37:35;;;;;;;9.63;8.63;;;;;;;3.94;100.00;96054.66;5009425;28;101820;-67
2022/11/05 01:40:03;;;;;;;10.93;9.73;;;;;;;3.90;100.00;96058.72;5012363;28;105239;-67
2022/11/05 01:42:32;;;;;;;11.50;9.63;;;;;;;3.91;100.00;96049.81;5009588;28;102132;-67
2022/11/05 01:45:02;;;;;;;12.30;10.70;;;;;;;3.94;100.00;96052.81;5009358;28;104898;-67
2022/11/05 01:47:50;;;;;;;12.60;10.07;;;;;;;4.03;100.00;96050.69;5007978;28;104363;-67
2022/11/05 01:50:50;;;;;;;12.97;10.33;;;;;;;4.10;100.00;96048.81;5008152;28;102011;-67
2022/11/05 01:53:25;;;;;;;11.63;9.67;;;;;;;4.21;100.00;96053.38;4964633;28;104959;-67
2022/11/05 01:56:01;;;;;;;11.23;9.60;;;;;;;4.26;100.00;96061.41;5008789;28;103557;-67
2022/11/05 01:58:33;;;;;;;11.90;10.20;;;;;;;4.29;100.00;96067.03;5009281;28;101948;-67
2022/11/05 02:01:02;;;;;;;11.87;9.77;;;;;;;4.33;100.00;96068.22;5011267;28;105163;-67
2022/11/05 02:03:30;;;;;;;10.50;9.40;;;;;;;4.35;100.00;96062.69;5009296;28;101953;-66
2022/11/05 02:06:01;;;;;;;10.43;9.33;;;;;;;4.31;100.00;96064.19;5008859;28;104600;-67
2022/11/05 02:08:45;;;;;;;10.67;9.23;;;;;;;4.35;100.00;96081.13;5009726;28;101796;-67
2022/11/05 02:11:17;;;;;;;10.97;8.67;;;;;;;4.40;100.00;96071.56;5010490;28;101935;-67
2022/11/05 02:13:44;;;;;;;10.23;9.13;;;;;;;4.43;100.00;96076.38;5010825;28;102938;-67
2022/11/05 02:16:19;;;;;;;11.53;9.30;;;;;;;4.44;100.00;96070.09;5009336;28;102561;-67
2022/11/05 02:18:57;;;;;;;11.03;8.97;;;;;;;4.44;100.00;96074.56;5010284;28;102524;-67
2022/11/05 02:21:57;;;;;;;11.70;9.27;;;;;;;4.47;100.00;96076.75;5010407;28;102508;-67
2022/11/05 02:24:55;;;;;;;9.83;8.73;;;;;;;4.52;100.00;96071.63;5011579;28;104905;-67
2022/11/05 02:27:40;;;;;;;9.93;8.53;;;;;;;4.52;100.00;96076.88;5008721;28;104820;-67
2022/11/05 02:30:27;;;;;;;11.70;8.90;;;;;;;4.59;100.00;96077.63;5008298;28;105563;-67
2022/11/05 02:33:23;;;;;;;12.03;9.10;;;;;;;4.65;100.00;96077.53;5008937;28;101848;-67
2022/11/05 02:36:06;;;;;;;10.10;8.70;;;;;;;4.62;100.00;96082.44;5010192;28;102330;-67
2022/11/05 02:38:40;;;;;;;9.43;8.30;;;;;;;4.63;100.00;96084.88;5009162;28;102605;-67
2022/11/05 02:41:16;;;;;;;10.10;8.93;;;;;;;4.64;100.00;96080.41;5010303;28;102100;-67
2022/11/05 02:43:51;;;;;;;10.57;9.23;;;;;;;4.68;100.00;96092.09;5010071;28;102243;-67
2022/11/05 02:46:32;;;;;;;10.07;8.93;;;;;;;4.69;100.00;96081.34;5009450;28;102662;-67
2022/11/05 02:49:14;;;;;;;11.33;9.23;;;;;;;4.70;100.00;96095.31;5011486;28;101890;-67
2022/11/05 02:51:52;;;;;;;9.23;8.23;;;;;;;4.72;100.00;96093.25;5009164;28;102569;-67
2022/11/05 02:54:27;;;;;;;9.50;8.47;;;;;;;4.75;100.00;96098.09;5010146;28;101709;-67
2022/11/05 02:56:56;;;;;;;9.77;8.73;;;;;;;4.79;100.00;96107.16;5008513;28;103984;-67
2022/11/05 02:59:23;;;;;;;9.13;8.17;;;;;;;4.79;100.00;96109.78;5008898;28;103039;-67
2022/11/05 03:01:53;;;;;;;9.60;8.50;;;;;;;4.86;100.00;96115.81;5008326;28;101953;-67
2022/11/05 03:04:24;;;;;;;10.50;9.00;;;;;;;4.87;100.00;96122.69;5008210;28;105095;-67
2022/11/05 03:07:09;;;;;;;10.10;8.90;;;;;;;4.87;100.00;96130.56;5007717;28;103884;-67
2022/11/05 03:10:18;;;;;;;10.57;8.63;;;;;;;4.94;100.00;96129.47;5008228;28;101806;-67
2022/11/05 03:12:57;;;;;;;9.83;8.83;;;;;;;5.06;100.00;96142.69;5009888;28;105506;-67
2022/11/05 03:15:42;;;;;;;11.17;8.93;;;;;;;5.09;100.00;96147.53;5008363;28;101889;-67
2022/11/05 03:18:18;;;;;;;9.67;8.60;;;;;;;5.08;100.00;96145.94;5008080;28;105641;-67
2022/11/05 03:20:49;;;;;;;9.17;8.27;;;;;;;4.96;100.00;96151.13;5007548;28;105728;-67
2022/11/05 03:23:26;;;;;;;9.77;8.73;;;;;;;4.85;100.00;96148.44;5008160;28;101856;-67
2022/11/05 03:26:11;;;;;;;10.50;9.10;;;;;;;4.83;100.00;96153.09;5009596;28;102675;-67
2022/11/05 03:28:42;;;;;;;10.80;8.93;;;;;;;4.80;100.00;96148.31;5008659;28;103098;-67
2022/11/05 03:31:13;;;;;;;10.90;8.77;;;;;;;4.87;100.00;96159.56;5011199;28;101930;-66
2022/11/05 03:33:44;;;;;;;10.30;9.20;;;;;;;4.82;100.00;96156.78;5012859;28;102312;-67
2022/11/05 03:36:16;;;;;;;10.40;8.90;;;;;;;4.87;100.00;96155.09;5014450;28;105857;-67
2022/11/05 03:38:47;;;;;;;10.97;9.80;;;;;;;4.76;100.00;96158.44;5011240;28;104035;-67
2022/11/05 03:41:16;;;;;;;11.83;10.30;;;;;;;4.77;100.00;96162.72;5010737;28;104903;-67
2022/11/05 03:43:47;;;;;;;12.27;10.17;;;;;;;4.74;100.00;96170.25;5010377;28;101795;-67
2022/11/05 03:46:19;;;;;;;11.37;9.77;;;;;;;4.77;100.00;96175.06;5010553;28;104988;-66
2022/11/05 03:48:51;;;;;;;12.33;9.47;;;;;;;4.80;100.00;96177.28;5012052;28;102784;-67
2022/11/05 03:51:29;;;;;;;11.17;8.90;;;;;;;4.78;100.00;96181.94;4991101;28;101827;-67
2022/11/05 03:53:58;;;;;;;9.40;8.43;;;;;;;4.81;100.00;96176.25;4991211;28;104772;-67
2022/11/05 03:56:30;;;;;;;10.33;8.73;;;;;;;4.80;100.00;96180.69;4991808;28;103270;-67
2022/11/05 03:59:00;;;;;;;10.37;8.63;;;;;;;4.83;100.00;96175.00;4994561;28;102390;-67
2022/11/05 04:01:30;;;;;;;8.33;7.53;;;;;;;4.90;100.00;96174.91;4990495;28;105750;-67
2022/11/05 04:03:58;;;;;;;7.90;7.07;;;;;;;4.89;100.00;96168.84;4991077;28;102338;-67
2022/11/05 04:14:39;;;;;;;7.10;6.40;;;;;;;5.02;100.00;96171.31;4991056;28;104689;-67
2022/11/05 04:17:05;;;;;;;6.97;6.27;;;;;;;4.99;100.00;96170.97;4990413;28;104168;-67
2022/11/05 04:25:04;;;;;;;7.17;6.40;;;;;;;5.01;100.00;96182.06;4992171;28;101695;-67
2022/11/05 04:27:31;;;;;;;6.80;6.13;;;;;;;5.03;100.00;96178.19;4990762;28;105025;-67
2022/11/05 04:32:59;;;;;;;7.10;6.40;;;;;;;5.00;100.00;96194.47;4990524;28;101988;-67
2022/11/05 04:35:29;;;;;;;7.17;6.47;;;;;;;5.03;100.00;96185.31;4990404;28;104948;-67
2022/11/05 04:37:56;;;;;;;7.40;6.70;;;;;;;5.02;100.00;96195.03;4989926;28;105183;-67
2022/11/05 04:40:23;;;;;;;7.10;6.40;;;;;;;5.09;100.00;96202.88;4990573;28;102123;-67
2022/11/05 04:42:50;;;;;;;7.13;6.40;;;;;;;5.10;100.00;96204.47;4991908;28;105218;-67
2022/11/05 04:45:18;;;;;;;7.03;6.33;;;;;;;5.12;100.00;96205.09;4991953;28;102006;-67
2022/11/05 04:47:45;;;;;;;6.87;5.90;;;;;;;5.18;100.00;96204.97;4990441;28;105067;-67
2022/11/05 04:50:12;;;;;;;7.20;6.50;;;;;;;5.22;100.00;96210.63;5000642;28;105685;-67
2022/11/05 04:52:41;;;;;;;7.37;6.03;;;;;;;5.19;100.00;96203.94;5010045;28;102040;-67
2022/11/05 04:55:09;;;;;;;6.37;5.77;;;;;;;5.22;100.00;96208.78;5010537;28;105013;-67
2022/11/05 04:57:37;;;;;;;6.40;5.80;;;;;;;5.28;100.00;96212.38;5009836;28;105843;-67
2022/11/05 05:00:06;;;;;;;7.43;5.83;;;;;;;5.29;100.00;96214.00;5010095;28;101895;-67
2022/11/05 05:02:34;;;;;;;7.13;6.43;;;;;;;5.28;100.00;96209.72;5010088;28;104859;-67
2022/11/05 05:05:00;;;;;;;6.57;5.87;;;;;;;5.29;100.00;96216.63;5013058;28;105410;-67
2022/11/05 05:07:28;;;;;;;7.13;6.23;;;;;;;5.27;100.00;96213.41;5009973;28;104812;-67
2022/11/05 05:09:56;;;;;;;7.60;6.80;;;;;;;5.27;100.00;96218.66;5009386;28;105820;-67
2022/11/05 05:12:25;;;;;;;7.53;6.73;;;;;;;5.28;100.00;96215.81;5009934;28;101919;-67
2022/11/05 05:14:52;;;;;;;8.83;7.03;;;;;;;5.21;100.00;96209.00;5009716;28;104773;-67
2022/11/05 05:17:21;;;;;;;8.23;6.60;;;;;;;5.19;100.00;96218.97;5009150;28;105827;-67
2022/11/05 05:22:32;;;;;;;7.80;7.00;;;;;;;5.17;100.00;96229.72;5011358;28;103022;-67
2022/11/05 05:25:01;;;;;;;8.43;6.83;;;;;;;5.18;100.00;96230.56;5010469;28;103164;-67
2022/11/05 05:27:29;;;;;;;10.40;8.07;;;;;;;5.13;100.00;96228.56;5013315;28;101872;-67
2022/11/05 05:29:56;;;;;;;7.87;7.07;;;;;;;5.11;100.00;96229.81;5009173;28;105119;-67
2022/11/05 05:32:25;;;;;;;8.07;7.27;;;;;;;5.09;100.00;96237.13;5009180;28;101824;-67
2022/11/05 05:34:52;;;;;;;8.93;8.03;;;;;;;5.14;100.00;96234.66;5009563;28;104768;-67
2022/11/05 05:37:20;;;;;;;8.20;7.40;;;;;;;5.19;100.00;96240.06;5010403;28;102643;-67
2022/11/05 05:39:48;;;;;;;9.27;7.70;;;;;;;5.21;100.00;96230.09;5009590;28;102504;-67
2022/11/05 05:42:17;;;;;;;9.10;8.17;;;;;;;5.26;100.00;96241.59;5009350;28;105816;-67
2022/11/05 05:44:43;;;;;;;10.20;8.13;;;;;;;5.28;100.00;96241.34;5009091;28;105121;-67
2022/11/05 05:47:10;;;;;;;8.97;8.07;;;;;;;5.33;100.00;96244.16;5009151;28;101920;-66
2022/11/05 05:49:39;;;;;;;9.07;7.83;;;;;;;5.32;100.00;96242.53;5011650;28;105013;-67
2022/11/05 05:52:06;;;;;;;8.83;7.93;;;;;;;5.31;100.00;96244.38;5009187;28;101851;-67
2022/11/05 05:54:35;;;;;;;9.07;7.97;;;;;;;5.31;100.00;96244.38;5008915;28;104939;-67
2022/11/05 05:57:03;;;;;;;8.60;7.67;;;;;;;5.23;100.00;96249.16;4991900;28;105257;-67
2022/11/05 05:59:31;;;;;;;9.03;8.13;;;;;;;5.28;100.00;96246.63;5009665;28;102009;-67
2022/11/05 06:01:59;;;;;;;8.60;7.70;;;;;;;5.35;100.00;96263.19;5009133;28;105393;-67
2022/11/05 06:04:26;;;;;;;9.67;8.67;;;;;;;5.28;100.00;96257.19;5008683;28;105751;-67
2022/11/05 06:06:54;;;;;;;9.13;8.20;;;;;;;5.29;100.00;96269.34;5009023;28;101931;-67
2022/11/05 06:09:22;;;;;;;8.60;7.70;;;;;;;5.30;100.00;96270.97;5009110;28;105723;-67
2022/11/05 06:11:49;;;;;;;9.10;8.07;;;;;;;5.35;100.00;96271.91;5011515;28;101975;-67
2022/11/05 06:14:16;;;;;;;9.23;8.30;;;;;;;5.34;100.00;96280.84;5010404;28;102755;-67
2022/11/05 06:16:46;;;;;;;9.20;7.87;;;;;;;5.38;100.00;96279.38;5008508;28;103720;-67
2022/11/05 06:19:15;;;;;;;11.57;9.63;;;;;;;5.31;100.00;96293.66;5009252;28;101988;-67
2022/11/05 06:21:41;;;;;;;10.20;8.93;;;;;;;5.43;100.00;96291.91;5010109;28;102928;-67
2022/11/05 06:24:09;;;;;;;9.70;8.47;;;;;;;5.43;100.00;96300.63;5008121;28;104269;-67
2022/11/05 06:26:41;;;;;;;9.90;8.53;;;;;;;5.29;100.00;96306.25;5011053;28;101976;-67
2022/11/05 06:29:08;;;;;;;11.27;8.90;;;;;;;5.31;100.00;96305.03;5018248;28;104781;-67
2022/11/05 06:31:35;;;;;;;11.93;10.00;;;;;;;5.34;100.00;96304.56;5020237;28;105475;-67
2022/11/05 06:34:04;;;;;;;11.17;9.20;;;;;;;5.36;100.00;96315.69;5019549;28;105278;-67
2022/11/05 06:36:31;;;;;;;10.90;9.50;;;;;;;5.37;100.00;96316.50;5017080;28;105651;-67
2022/11/05 06:38:58;;;;;;;10.53;8.83;;;;;;;5.27;100.00;96314.38;5017795;28;102144;-67
2022/11/05 06:41:56;;;;;;;11.20;9.20;;;;;;;5.29;100.00;96319.44;5019937;28;104841;-67
2022/11/05 06:44:23;;;;;;;9.83;8.70;;;;;;;5.34;100.00;96327.50;5019074;28;105652;-67
2022/11/05 06:46:50;;;;;;;11.10;9.43;;;;;;;5.32;100.00;96329.53;5018656;28;101868;-67
2022/11/05 06:49:23;;;;;;;11.57;9.10;;;;;;;5.29;100.00;96330.78;5016705;28;105577;-67
2022/11/05 06:55:46;;;;;;;11.83;9.73;;;;;;;5.42;100.00;96345.66;5010547;28;101777;-67
2022/11/05 06:58:13;;;;;;;11.37;9.53;;;;;;;5.43;100.00;96355.19;5009537;28;103099;-67
2022/11/05 07:00:40;;;;;;;11.70;9.87;;;;;;;5.52;100.00;96359.16;5010389;28;101679;-67
2022/11/05 07:03:10;;;;;;;11.83;9.47;;;;;;;5.57;100.00;96362.72;5009015;28;103582;-67
2022/11/05 07:05:42;;;;;;;11.60;9.47;;;;;;;5.54;100.00;96368.47;5010840;28;102458;-67
2022/11/05 07:08:09;;;;;;;11.90;9.87;;;;;;;5.58;100.00;96374.09;5012328;28;101865;-67
2022/11/05 07:10:36;;;;;;;12.30;9.40;;;;;;;5.53;100.00;96373.94;5012336;28;104760;-67
2022/11/05 07:13:37;;;;;;;11.23;9.10;;;;;;;5.48;100.00;96379.06;5011324;28;105174;-67
2022/11/05 07:16:05;;;;;;;11.73;8.67;;;;;;;5.39;100.00;96386.47;5012519;28;101902;-67
2022/11/05 07:18:33;;;;;;;10.97;9.03;;;;;;;5.44;100.00;96388.44;5015031;28;105162;-67
2022/11/05 07:21:04;;;;;;;10.33;9.07;;;;;;;5.43;100.00;96392.91;5012201;28;101946;-67
2022/11/05 07:23:31;;;;;;;12.70;8.83;;;;;;;5.36;100.00;96401.91;5023520;28;104857;-67
2022/11/05 07:26:09;;;;;;;10.33;8.43;;;;;;;5.40;100.00;96408.38;5031343;28;104316;-67
2022/11/05 07:28:36;;;;;;;11.17;9.33;;;;;;;5.46;100.00;96410.13;5032054;28;102110;-67
2022/11/05 07:31:30;;;;;;;12.23;9.53;;;;;;;5.50;100.00;96419.19;5031728;28;104895;-67
2022/11/05 07:33:58;;;;;;;10.33;8.27;;;;;;;5.41;100.00;96410.78;5031355;28;104974;-67
2022/11/05 07:36:26;;;;;;;11.53;8.87;;;;;;;5.45;100.00;96411.16;5031856;28;101895;-67
2022/11/05 07:38:53;;;;;;;10.03;8.53;;;;;;;5.51;100.00;96412.94;5031509;28;104925;-68
2022/11/05 07:41:29;;;;;;;10.33;8.87;;;;;;;5.50;100.00;96417.38;5034640;28;105601;-67
2022/11/05 07:43:56;;;;;;;11.93;8.83;;;;;;;5.50;100.00;96419.19;5031876;28;105199;-67
2022/11/05 07:46:25;;;;;;;11.03;8.90;;;;;;;5.46;100.00;96415.41;5031398;28;105153;-67
2022/11/05 07:48:53;;;;;;;10.27;8.33;;;;;;;5.40;100.00;96413.66;5031369;28;102185;-67
2022/11/05 07:51:22;;;;;;;11.37;8.90;;;;;;;5.44;100.00;96422.72;5031958;28;105006;-67
2022/11/05 07:53:50;;;;;;;11.07;8.73;;;;;;;5.41;100.00;96418.69;5030892;28;104047;-67
2022/11/05 07:56:19;;;;;;;10.73;9.03;;;;;;;5.48;100.00;96424.72;5031594;28;101909;-67
2022/11/05 07:58:46;;;;;;;12.93;9.93;;;;;;;5.48;100.00;96427.34;5032659;28;103017;-67
2022/11/05 08:01:22;;;;;;;12.30;9.90;;;;;;;5.53;100.00;96429.31;5030961;28;105164;-67
2022/11/05 08:03:49;;;;;;;11.20;9.50;;;;;;;5.58;100.00;96432.13;5034753;28;101894;-67
2022/11/05 08:06:16;;;;;;;11.03;8.60;;;;;;;5.60;100.00;96435.34;5030890;28;105672;-67
2022/11/05 08:08:43;;;;;;;10.97;8.77;;;;;;;5.65;100.00;96428.41;5032759;27;102073;-67
2022/11/05 08:11:12;;;;;;;9.77;8.30;;;;;;;5.72;100.00;96428.34;5031490;28;104836;-67
2022/11/05 08:13:39;;;;;;;10.57;8.17;;;;;;;5.80;100.00;96430.72;5032186;27;102774;-67
2022/11/05 08:16:09;;;;;;;9.77;7.87;;;;;;;5.81;100.00;96427.84;5031898;27;101804;-68
2022/11/05 08:18:38;;;;;;;9.87;8.13;;;;;;;5.78;100.00;96427.47;5013910;28;104891;-68
2022/11/05 08:21:07;;;;;;;8.17;7.00;;;;;;;5.82;100.00;96420.72;5010716;28;105558;-67
2022/11/05 08:23:37;;;;;;;10.70;8.63;;;;;;;5.83;100.00;96431.06;5012757;28;101834;-67
2022/11/05 08:26:16;;;;;;;10.57;8.80;;;;;;;5.90;100.00;96431.78;5010027;28;105656;-67
2022/11/05 08:28:45;;;;;;;9.90;8.37;;;;;;;5.96;100.00;96430.94;5010886;28;101885;-67
2022/11/05 08:31:17;;;;;;;11.17;8.93;;;;;;;6.00;100.00;96436.59;5012027;28;104331;-67
2022/11/05 08:33:44;;;;;;;8.80;7.80;;;;;;;5.93;100.00;96430.56;5010148;28;105518;-67
2022/11/05 08:36:11;;;;;;;9.07;8.07;;;;;;;6.05;100.00;96434.09;5011050;28;101962;-67
2022/11/05 08:38:38;;;;;;;9.70;8.20;;;;;;;6.03;100.00;96433.50;5010727;28;104770;-68
2022/11/05 08:41:05;;;;;;;9.87;7.83;;;;;;;6.10;100.00;96437.66;5008599;28;105128;-67
2022/11/05 08:43:35;;;;;;;9.70;8.50;;;;;;;6.20;100.00;96445.88;5010419;28;102041;-67
2022/11/05 08:46:02;;;;;;;9.23;8.07;;;;;;;6.20;100.00;96437.13;5014948;28;101697;-67
2022/11/05 08:48:29;;;;;;;11.27;9.77;;;;;;;6.28;100.00;96442.13;5010403;28;101865;-67
2022/11/05 08:51:00;;;;;;;9.60;8.03;;;;;;;6.20;100.00;96447.69;5009985;28;105097;-67
2022/11/05 08:53:27;;;;;;;10.30;8.90;;;;;;;6.27;100.00;96443.94;5009694;28;105225;-67
2022/11/05 08:55:58;;;;;;;9.50;7.67;;;;;;;6.15;100.00;96450.19;5009142;28;101957;-67
2022/11/05 08:58:25;;;;;;;10.63;8.53;;;;;;;6.16;100.00;96449.19;5009654;28;104875;-67
2022/11/05 09:00:59;;;;;;;10.50;8.60;;;;;;;6.15;100.00;96448.38;5009494;28;105339;-64
2022/11/05 09:03:26;;;;;;;9.47;7.83;;;;;;;6.15;100.00;96453.66;5023092;28;102107;-66
2022/11/05 09:05:53;;;;;;;9.97;8.10;;;;;;;6.20;100.00;96447.69;5030276;28;105326;-66
2022/11/05 09:08:20;;;;;;;9.67;7.93;;;;;;;6.26;100.00;96454.72;5033104;28;105002;-66
2022/11/05 09:10:48;;;;;;;10.37;8.23;;;;;;;6.23;100.00;96453.34;5030019;28;105114;-66
2022/11/05 09:13:17;;;;;;;9.50;7.83;;;;;;;6.23;100.00;96463.13;5029323;28;106446;-66
2022/11/05 09:15:44;;;;;;;9.47;7.83;;;;;;;6.31;100.00;96455.69;5030792;28;102413;-66
2022/11/05 09:18:14;;;;;;;9.30;7.90;;;;;;;6.44;100.00;96466.09;5030132;28;105234;-66
2022/11/05 09:20:42;;;;;;;9.73;7.70;;;;;;;6.42;100.00;96456.78;5029310;28;104437;-66
2022/11/05 09:23:11;;;;;;;7.27;6.50;;;;;;;6.40;100.00;96466.75;5029641;28;101968;-66
2022/11/05 09:25:39;;;;;;;8.27;6.93;;;;;;;6.46;100.00;96447.38;5029482;28;104139;-66
2022/11/05 09:28:11;;;;;;;6.97;5.70;;;;;;;6.46;100.00;96461.41;5028489;28;105389;-66
2022/11/05 09:30:41;;;;;;;7.67;5.90;;;;;;;6.62;100.00;96455.50;5033284;28;101763;-66
2022/11/05 09:33:08;;;;;;;7.33;6.20;;;;;;;6.76;100.00;96450.84;5029124;28;105391;-66
2022/11/05 09:35:40;;;;;;;6.70;5.47;;;;;;;6.78;100.00;96457.53;5029663;28;102319;-66
2022/11/05 09:38:07;;;;;;;5.97;5.37;;;;;;;6.84;100.00;96461.09;5031073;28;103049;-66
2022/11/05 09:40:39;;;;;;;5.20;4.70;;;;;;;6.81;100.00;96458.91;5028771;28;105589;-66
2022/11/05 09:43:07;;;;;;;5.80;5.30;;;;;;;6.88;100.00;96467.53;5029628;28;102259;-66
2022/11/05 09:45:36;;;;;;;5.60;5.00;;;;;;;6.91;100.00;96465.25;5029680;28;105552;-66
2022/11/05 09:48:10;;;;;;;5.47;4.97;;;;;;;7.03;100.00;96470.59;5028632;28;106026;-66
2022/11/05 09:50:42;;;;;;;5.83;5.13;;;;;;;7.11;100.00;96472.88;5028988;28;101848;-66
2022/11/05 09:53:13;;;;;;;5.50;4.97;;;;;;;7.25;100.00;96464.53;5032012;28;104159;-66
2022/11/05 09:55:43;;;;;;;5.40;4.90;;;;;;;7.13;100.00;96474.28;5029399;28;101751;-66
2022/11/05 09:58:17;;;;;;;6.20;5.13;;;;;;;7.33;100.00;96471.31;5018519;28;105540;-66
2022/11/05 10:00:47;;;;;;;5.53;5.03;;;;;;;7.35;100.00;96469.25;5008724;28;105154;-66
2022/11/05 10:03:17;;;;;;;8.30;5.77;;;;;;;7.51;100.00;96469.38;5008982;28;101826;-66
2022/11/05 10:05:50;;;;;;;5.77;4.83;;;;;;;7.61;100.00;96468.81;5009042;28;105180;-66
2022/11/05 10:08:22;;;;;;;5.50;5.00;;;;;;;7.45;100.00;96464.19;5008038;28;104982;-66
2022/11/05 10:10:54;;;;;;;5.33;4.20;;;;;;;7.56;100.00;96471.34;5008961;28;101942;-66
2022/11/05 10:13:37;;;;;;;5.53;4.93;;;;;;;7.71;100.00;96474.34;5008773;28;103631;-66
2022/11/05 10:16:20;;;;;;;4.90;4.10;;;;;;;7.64;100.00;96478.94;5011597;28;104957;-66
2022/11/05 10:18:51;;;;;;;5.57;4.40;;;;;;;7.92;100.00;96485.16;5008981;28;104945;-66
2022/11/05 10:21:21;;;;;;;4.23;3.80;;;;;;;7.91;100.00;96485.41;5008313;28;105673;-66
2022/11/05 10:23:49;;;;;;;5.20;3.80;;;;;;;7.87;100.00;96492.19;5008714;28;101874;-66
2022/11/05 10:26:20;;;;;;;3.87;3.47;;;;;;;7.85;100.00;96499.56;5008670;28;105393;-66
2022/11/05 10:28:49;;;;;;;4.07;3.67;;;;;;;8.05;100.00;96492.06;5008159;28;104999;-66
2022/11/05 10:31:20;;;;;;;3.60;3.30;;;;;;;8.09;100.00;96491.38;5008467;28;102270;-66
2022/11/05 10:33:50;;;;;;;4.23;3.83;;;;;;;8.25;100.00;96487.22;5009997;28;102322;-66
2022/11/05 10:36:23;;;;;;;4.03;3.70;;;;;;;8.36;100.00;96489.88;5012263;28;102623;-66
2022/11/05 10:38:50;;;;;;;3.80;3.50;;;;;;;8.34;100.00;96486.63;5010429;28;102471;-66
2022/11/05 10:41:31;;;;;;;3.77;3.40;;;;;;;8.41;100.00;96486.50;5008118;28;103697;-66
2022/11/05 10:44:09;;;;;;;3.77;3.30;;;;;;;8.41;100.00;96487.28;5010020;28;102576;-66
2022/11/05 10:46:46;;;;;;;4.10;3.70;;;;;;;8.52;100.00;96486.50;5009871;28;102906;-66
2022/11/05 10:49:30;;;;;;;3.63;3.33;;;;;;;8.40;100.00;96484.91;5009117;28;103109;-66
2022/11/05 10:52:02;;;;;;;3.30;3.00;;;;;;;8.43;100.00;96485.22;5009803;28;101767;-66
2022/11/05 10:54:34;;;;;;;3.37;3.17;;;;;;;8.62;100.00;96483.22;5009985;28;102420;-66
2022/11/05 10:57:21;;;;;;;3.83;3.10;;;;;;;8.57;100.00;96485.78;5009272;28;103108;-66
2022/11/05 10:59:48;;;;;;;4.03;3.13;;;;;;;8.61;100.00;96487.72;5013152;28;101835;-66
2022/11/05 11:02:22;;;;;;;4.57;3.17;;;;;;;8.60;100.00;96487.94;5009176;28;103096;-66
2022/11/05 11:04:52;;;;;;;2.87;2.67;;;;;;;8.52;100.00;96488.31;5009809;28;101997;-66
2022/11/05 11:07:25;;;;;;;2.80;2.60;;;;;;;8.45;100.00;96493.75;5012093;28;102561;-66
2022/11/05 11:09:53;;;;;;;3.93;3.20;;;;;;;8.68;100.00;96485.72;5018308;28;102463;-67
2022/11/05 11:12:24;;;;;;;3.37;3.10;;;;;;;8.85;100.00;96491.09;5028492;28;102100;-66
2022/11/05 11:15:01;;;;;;;3.47;3.17;;;;;;;8.73;100.00;96490.34;5029926;28;102609;-66
2022/11/05 11:17:30;;;;;;;3.37;3.07;;;;;;;8.85;100.00;96483.13;5027787;28;104229;-66
2022/11/05 11:20:22;;;;;;;3.53;3.23;;;;;;;8.78;100.00;96485.13;5029435;28;101823;-67
2022/11/05 11:23:02;;;;;;;3.50;3.20;;;;;;;8.69;100.00;96489.19;5032911;28;101648;-67
2022/11/05 11:25:33;;;;;;;4.93;3.57;;;;;;;8.68;100.00;96484.94;5028097;28;101959;-67
2022/11/05 11:28:05;;;;;;;2.93;2.73;;;;;;;8.59;100.00;96488.97;5027875;28;103756;-66
2022/11/05 11:30:34;;;;;;;3.83;3.53;;;;;;;8.68;100.00;96488.38;5027617;28;104156;-66
2022/11/05 11:33:07;;;;;;;3.20;3.00;;;;;;;8.69;100.00;96484.69;5028282;28;101890;-66
2022/11/05 11:35:37;;;;;;;3.60;3.30;;;;;;;8.62;100.00;96491.97;5027773;28;106541;-66
2022/11/05 11:38:07;;;;;;;4.30;3.43;;;;;;;8.81;100.00;96498.72;5027374;28;105043;-66
2022/11/05 11:40:36;;;;;;;4.00;3.13;;;;;;;8.67;100.00;96485.97;5027888;28;102096;-66
2022/11/05 11:43:12;;;;;;;3.60;3.30;;;;;;;8.48;100.00;96495.13;5027915;28;104799;-66
2022/11/05 11:45:46;;;;;;;3.93;3.30;;;;;;;8.50;100.00;96485.91;5030898;28;105472;-67
2022/11/05 11:48:18;;;;;;;3.53;3.23;;;;;;;8.43;100.00;96501.13;5028037;28;105342;-66
2022/11/05 11:50:47;;;;;;;4.10;3.40;;;;;;;8.33;100.00;96500.09;5026946;27;105201;-66
2022/11/05 11:53:33;;;;;;;3.80;3.33;;;;;;;8.29;100.00;96502.41;5031265;28;101977;-66
2022/11/05 11:56:14;;;;;;;3.90;3.60;;;;;;;8.36;100.00;96505.75;5030425;28;105376;-67
2022/11/05 11:58:45;;;;;;;4.37;4.00;;;;;;;8.25;100.00;96503.13;5030747;28;105869;-67
2022/11/05 12:01:49;;;;;;;4.90;4.43;;;;;;;8.18;100.00;96515.66;5030950;28;101915;-67
2022/11/05 12:04:33;;;;;;;4.47;3.93;;;;;;;8.21;100.00;96509.91;5027961;28;104744;-67
2022/11/05 12:07:14;;;;;;;4.53;4.13;;;;;;;8.08;100.00;96515.44;5024730;28;105056;-67
2022/11/05 12:09:58;;;;;;;4.10;3.80;;;;;;;8.15;100.00;96510.81;5033633;27;102033;-67
2022/11/05 12:12:33;;;;;;;4.37;3.93;;;;;;;8.27;100.00;96509.81;5018442;28;104971;-67
2022/11/05 12:15:24;;;;;;;5.90;4.67;;;;;;;8.22;100.00;96512.34;5018664;28;101873;-67
2022/11/05 12:17:59;;;;;;;4.80;4.30;;;;;;;8.23;100.00;96515.81;5030850;28;104835;-67
2022/11/05 12:20:45;;;;;;;5.23;4.73;;;;;;;8.22;100.00;96519.47;5030448;28;105014;-67
2022/11/05 12:23:37;;;;;;;5.90;5.10;;;;;;;8.27;100.00;96511.63;5030985;28;101879;-67
2022/11/05 12:26:19;;;;;;;7.10;5.70;;;;;;;8.31;100.00;96524.19;5030555;28;105429;-67
2022/11/05 12:29:12;;;;;;;5.17;4.67;;;;;;;8.24;100.00;96522.72;5029923;28;106773;-67